sensor_id;sensor_type;location;lat;lon;timestamp;P1;durP1;ratioP1;P2;durP2;ratioP2
13785;SDS011;47474;48.824;9.384;2023-03-01T00:00:38;24.10;;;15.27;;
13785;SDS011;47474;48.824;9.384;2023-03-01T00:03:05;21.80;;;14.43;;
13785;SDS011;47474;48.824;9.384;2023-03-01T00:05:31;22.13;;;14.00;;
13785;SDS011;47474;48.824;9.384;2023-03-01T00:07:58;19.33;;;13.90;;
13785;SDS011;47474;48.824;9.384;2023-03-01T00:10:24;20.73;;;14.17;;
13785;SDS011;47474;48.824;9.384;2023-03-01T00:12:51;24.57;;;14.07;;
13785;SDS011;47474;48.824;9.384;2023-03-01T00:15:18;18.87;;;12.77;;
13785;SDS011;47474;48.824;9.384;2023-03-01T00:17:46;16.97;;;12.90;;
13785;SDS011;47474;48.824;9.384;2023-03-01T00:20:12;18.27;;;12.23;;
13785;SDS011;47474;48.824;9.384;2023-03-01T00:22:39;22.40;;;13.53;;
13785;SDS011;47474;48.824;9.384;2023-03-01T00:25:06;21.83;;;14.40;;
13785;SDS011;47474;48.824;9.384;2023-03-01T00:27:32;18.43;;;13.10;;
13785;SDS011;47474;48.824;9.384;2023-03-01T00:29:59;22.93;;;13.30;;
13785;SDS011;47474;48.824;9.384;2023-03-01T00:32:25;19.60;;;13.37;;
13785;SDS011;47474;48.824;9.384;2023-03-01T00:34:53;15.83;;;11.60;;
13785;SDS011;47474;48.824;9.384;2023-03-01T00:37:21;20.40;;;13.83;;
13785;SDS011;47474;48.824;9.384;2023-03-01T00:39:47;18.17;;;12.83;;
13785;SDS011;47474;48.824;9.384;2023-03-01T00:42:14;19.17;;;13.20;;
13785;SDS011;47474;48.824;9.384;2023-03-01T00:44:41;19.83;;;13.80;;
13785;SDS011;47474;48.824;9.384;2023-03-01T00:47:07;18.37;;;13.20;;
13785;SDS011;47474;48.824;9.384;2023-03-01T00:49:34;22.33;;;12.80;;
13785;SDS011;47474;48.824;9.384;2023-03-01T00:52:02;17.67;;;12.63;;
13785;SDS011;47474;48.824;9.384;2023-03-01T00:54:28;17.77;;;13.07;;
13785;SDS011;47474;48.824;9.384;2023-03-01T00:56:55;17.23;;;11.77;;
13785;SDS011;47474;48.824;9.384;2023-03-01T00:59:21;14.67;;;11.00;;
13785;SDS011;47474;48.824;9.384;2023-03-01T01:01:48;17.10;;;12.07;;
13785;SDS011;47474;48.824;9.384;2023-03-01T01:04:14;18.33;;;12.17;;
13785;SDS011;47474;48.824;9.384;2023-03-01T01:06:41;16.63;;;11.50;;
13785;SDS011;47474;48.824;9.384;2023-03-01T01:09:12;16.90;;;11.20;;
13785;SDS011;47474;48.824;9.384;2023-03-01T01:11:42;17.67;;;12.17;;
13785;SDS011;47474;48.824;9.384;2023-03-01T01:14:09;17.03;;;12.73;;
13785;SDS011;47474;48.824;9.384;2023-03-01T01:16:35;21.83;;;12.90;;
13785;SDS011;47474;48.824;9.384;2023-03-01T01:19:02;17.50;;;11.50;;
13785;SDS011;47474;48.824;9.384;2023-03-01T01:21:28;16.73;;;11.20;;
13785;SDS011;47474;48.824;9.384;2023-03-01T01:23:56;17.93;;;12.37;;
13785;SDS011;47474;48.824;9.384;2023-03-01T01:26:24;18.17;;;12.23;;
13785;SDS011;47474;48.824;9.384;2023-03-01T01:28:51;19.90;;;11.20;;
13785;SDS011;47474;48.824;9.384;2023-03-01T01:31:19;20.13;;;12.83;;
13785;SDS011;47474;48.824;9.384;2023-03-01T01:33:48;16.30;;;11.20;;
13785;SDS011;47474;48.824;9.384;2023-03-01T01:36:15;17.37;;;11.43;;
13785;SDS011;47474;48.824;9.384;2023-03-01T01:38:42;15.40;;;11.07;;
13785;SDS011;47474;48.824;9.384;2023-03-01T01:41:09;16.00;;;11.53;;
13785;SDS011;47474;48.824;9.384;2023-03-01T01:43:39;17.77;;;12.23;;
13785;SDS011;47474;48.824;9.384;2023-03-01T01:46:10;16.67;;;11.77;;
13785;SDS011;47474;48.824;9.384;2023-03-01T01:48:44;16.80;;;12.27;;
13785;SDS011;47474;48.824;9.384;2023-03-01T01:51:12;16.03;;;11.10;;
13785;SDS011;47474;48.824;9.384;2023-03-01T01:53:40;16.93;;;11.37;;
13785;SDS011;47474;48.824;9.384;2023-03-01T01:56:08;14.87;;;10.43;;
13785;SDS011;47474;48.824;9.384;2023-03-01T01:58:36;13.87;;;10.83;;
13785;SDS011;47474;48.824;9.384;2023-03-01T02:01:05;17.10;;;11.67;;
13785;SDS011;47474;48.824;9.384;2023-03-01T02:03:32;19.33;;;11.87;;
13785;SDS011;47474;48.824;9.384;2023-03-01T02:06:04;16.50;;;11.77;;
13785;SDS011;47474;48.824;9.384;2023-03-01T02:08:31;16.70;;;11.53;;
13785;SDS011;47474;48.824;9.384;2023-03-01T02:10:59;15.13;;;11.20;;
13785;SDS011;47474;48.824;9.384;2023-03-01T02:13:29;16.50;;;10.77;;
13785;SDS011;47474;48.824;9.384;2023-03-01T02:15:57;16.33;;;10.53;;
13785;SDS011;47474;48.824;9.384;2023-03-01T02:18:25;16.80;;;12.40;;
13785;SDS011;47474;48.824;9.384;2023-03-01T02:20:56;16.70;;;11.30;;
13785;SDS011;47474;48.824;9.384;2023-03-01T02:23:27;19.63;;;11.67;;
13785;SDS011;47474;48.824;9.384;2023-03-01T02:25:56;17.00;;;11.27;;
13785;SDS011;47474;48.824;9.384;2023-03-01T02:28:27;16.50;;;10.77;;
13785;SDS011;47474;48.824;9.384;2023-03-01T02:30:56;17.87;;;11.67;;
13785;SDS011;47474;48.824;9.384;2023-03-01T02:33:40;15.33;;;10.83;;
13785;SDS011;47474;48.824;9.384;2023-03-01T02:36:08;15.07;;;10.97;;
13785;SDS011;47474;48.824;9.384;2023-03-01T02:38:38;18.17;;;12.33;;
13785;SDS011;47474;48.824;9.384;2023-03-01T02:41:05;18.93;;;11.47;;
13785;SDS011;47474;48.824;9.384;2023-03-01T02:43:33;19.53;;;11.87;;
13785;SDS011;47474;48.824;9.384;2023-03-01T02:46:02;16.00;;;10.90;;
13785;SDS011;47474;48.824;9.384;2023-03-01T02:48:38;18.90;;;11.93;;
13785;SDS011;47474;48.824;9.384;2023-03-01T02:51:07;19.40;;;11.33;;
13785;SDS011;47474;48.824;9.384;2023-03-01T02:53:39;18.50;;;11.90;;
13785;SDS011;47474;48.824;9.384;2023-03-01T02:56:09;18.50;;;11.60;;
13785;SDS011;47474;48.824;9.384;2023-03-01T02:58:39;16.57;;;11.07;;
13785;SDS011;47474;48.824;9.384;2023-03-01T03:01:10;16.10;;;11.17;;
13785;SDS011;47474;48.824;9.384;2023-03-01T03:03:38;16.67;;;11.30;;
13785;SDS011;47474;48.824;9.384;2023-03-01T03:06:04;18.43;;;11.77;;
13785;SDS011;47474;48.824;9.384;2023-03-01T03:08:31;16.80;;;11.37;;
13785;SDS011;47474;48.824;9.384;2023-03-01T03:10:57;18.37;;;12.10;;
13785;SDS011;47474;48.824;9.384;2023-03-01T03:13:24;19.23;;;12.03;;
13785;SDS011;47474;48.824;9.384;2023-03-01T03:15:54;17.83;;;11.00;;
13785;SDS011;47474;48.824;9.384;2023-03-01T03:18:21;18.43;;;11.63;;
13785;SDS011;47474;48.824;9.384;2023-03-01T03:20:51;21.13;;;13.40;;
13785;SDS011;47474;48.824;9.384;2023-03-01T03:23:18;17.67;;;11.30;;
13785;SDS011;47474;48.824;9.384;2023-03-01T03:25:47;17.17;;;11.27;;
13785;SDS011;47474;48.824;9.384;2023-03-01T03:28:14;16.17;;;11.90;;
13785;SDS011;47474;48.824;9.384;2023-03-01T03:30:41;17.63;;;11.97;;
13785;SDS011;47474;48.824;9.384;2023-03-01T03:33:10;17.40;;;12.00;;
13785;SDS011;47474;48.824;9.384;2023-03-01T03:35:38;15.87;;;12.07;;
13785;SDS011;47474;48.824;9.384;2023-03-01T03:38:06;16.00;;;11.27;;
13785;SDS011;47474;48.824;9.384;2023-03-01T03:40:40;17.27;;;12.43;;
13785;SDS011;47474;48.824;9.384;2023-03-01T03:43:09;17.00;;;11.57;;
13785;SDS011;47474;48.824;9.384;2023-03-01T03:45:37;19.37;;;12.37;;
13785;SDS011;47474;48.824;9.384;2023-03-01T03:48:05;16.33;;;12.13;;
13785;SDS011;47474;48.824;9.384;2023-03-01T03:50:33;19.23;;;12.93;;
13785;SDS011;47474;48.824;9.384;2023-03-01T03:53:00;17.83;;;12.80;;
13785;SDS011;47474;48.824;9.384;2023-03-01T03:55:27;17.30;;;11.90;;
13785;SDS011;47474;48.824;9.384;2023-03-01T03:57:56;19.67;;;13.37;;
13785;SDS011;47474;48.824;9.384;2023-03-01T04:00:25;18.00;;;12.60;;
13785;SDS011;47474;48.824;9.384;2023-03-01T04:02:52;16.83;;;11.87;;
13785;SDS011;47474;48.824;9.384;2023-03-01T04:05:21;19.47;;;12.17;;
13785;SDS011;47474;48.824;9.384;2023-03-01T04:07:49;18.50;;;12.43;;
13785;SDS011;47474;48.824;9.384;2023-03-01T04:10:26;19.37;;;12.17;;
13785;SDS011;47474;48.824;9.384;2023-03-01T04:12:53;15.50;;;11.83;;
13785;SDS011;47474;48.824;9.384;2023-03-01T04:15:21;16.33;;;11.10;;
13785;SDS011;47474;48.824;9.384;2023-03-01T04:17:49;16.80;;;12.00;;
13785;SDS011;47474;48.824;9.384;2023-03-01T04:20:17;17.33;;;12.07;;
13785;SDS011;47474;48.824;9.384;2023-03-01T04:22:50;19.93;;;13.20;;
13785;SDS011;47474;48.824;9.384;2023-03-01T04:25:18;21.23;;;12.33;;
13785;SDS011;47474;48.824;9.384;2023-03-01T04:27:44;17.27;;;12.13;;
13785;SDS011;47474;48.824;9.384;2023-03-01T04:30:11;17.70;;;11.67;;
13785;SDS011;47474;48.824;9.384;2023-03-01T04:32:38;18.37;;;11.30;;
13785;SDS011;47474;48.824;9.384;2023-03-01T04:35:04;15.77;;;11.43;;
13785;SDS011;47474;48.824;9.384;2023-03-01T04:37:31;18.37;;;12.87;;
13785;SDS011;47474;48.824;9.384;2023-03-01T04:39:59;18.03;;;12.03;;
13785;SDS011;47474;48.824;9.384;2023-03-01T04:42:25;21.27;;;12.87;;
13785;SDS011;47474;48.824;9.384;2023-03-01T04:44:51;16.00;;;11.97;;
13785;SDS011;47474;48.824;9.384;2023-03-01T04:47:18;17.03;;;11.93;;
13785;SDS011;47474;48.824;9.384;2023-03-01T04:49:44;20.23;;;12.77;;
13785;SDS011;47474;48.824;9.384;2023-03-01T04:52:11;21.63;;;13.17;;
13785;SDS011;47474;48.824;9.384;2023-03-01T04:54:37;20.27;;;12.93;;
13785;SDS011;47474;48.824;9.384;2023-03-01T04:57:05;17.30;;;12.73;;
13785;SDS011;47474;48.824;9.384;2023-03-01T04:59:32;22.33;;;13.93;;
13785;SDS011;47474;48.824;9.384;2023-03-01T05:01:58;17.97;;;12.43;;
13785;SDS011;47474;48.824;9.384;2023-03-01T05:04:25;19.40;;;12.43;;
13785;SDS011;47474;48.824;9.384;2023-03-01T05:06:52;17.57;;;12.43;;
13785;SDS011;47474;48.824;9.384;2023-03-01T05:09:19;19.27;;;12.60;;
13785;SDS011;47474;48.824;9.384;2023-03-01T05:11:46;21.53;;;13.53;;
13785;SDS011;47474;48.824;9.384;2023-03-01T05:14:14;20.17;;;12.90;;
13785;SDS011;47474;48.824;9.384;2023-03-01T05:16:40;17.90;;;13.17;;
13785;SDS011;47474;48.824;9.384;2023-03-01T05:19:07;18.50;;;12.37;;
13785;SDS011;47474;48.824;9.384;2023-03-01T05:21:40;18.30;;;12.73;;
13785;SDS011;47474;48.824;9.384;2023-03-01T05:24:26;20.37;;;12.50;;
13785;SDS011;47474;48.824;9.384;2023-03-01T05:26:53;22.87;;;13.73;;
13785;SDS011;47474;48.824;9.384;2023-03-01T05:29:21;17.23;;;12.70;;
13785;SDS011;47474;48.824;9.384;2023-03-01T05:31:51;18.93;;;13.87;;
13785;SDS011;47474;48.824;9.384;2023-03-01T05:34:18;17.60;;;12.93;;
13785;SDS011;47474;48.824;9.384;2023-03-01T05:36:47;17.97;;;12.80;;
13785;SDS011;47474;48.824;9.384;2023-03-01T05:39:16;21.70;;;13.13;;
13785;SDS011;47474;48.824;9.384;2023-03-01T05:41:42;23.80;;;12.50;;
13785;SDS011;47474;48.824;9.384;2023-03-01T05:44:09;20.13;;;12.87;;
13785;SDS011;47474;48.824;9.384;2023-03-01T05:46:38;20.33;;;12.80;;
13785;SDS011;47474;48.824;9.384;2023-03-01T05:49:05;20.03;;;13.83;;
13785;SDS011;47474;48.824;9.384;2023-03-01T05:51:31;18.83;;;12.87;;
13785;SDS011;47474;48.824;9.384;2023-03-01T05:53:58;18.60;;;12.60;;
13785;SDS011;47474;48.824;9.384;2023-03-01T05:56:25;18.03;;;12.70;;
13785;SDS011;47474;48.824;9.384;2023-03-01T05:58:51;19.20;;;12.30;;
13785;SDS011;47474;48.824;9.384;2023-03-01T06:01:18;19.53;;;12.93;;
13785;SDS011;47474;48.824;9.384;2023-03-01T06:03:45;17.83;;;13.17;;
13785;SDS011;47474;48.824;9.384;2023-03-01T06:06:12;18.60;;;12.77;;
13785;SDS011;47474;48.824;9.384;2023-03-01T06:08:38;21.47;;;12.67;;
13785;SDS011;47474;48.824;9.384;2023-03-01T06:11:05;20.47;;;12.23;;
13785;SDS011;47474;48.824;9.384;2023-03-01T06:13:32;19.57;;;13.17;;
13785;SDS011;47474;48.824;9.384;2023-03-01T06:15:59;22.67;;;13.73;;
13785;SDS011;47474;48.824;9.384;2023-03-01T06:18:25;19.90;;;12.57;;
13785;SDS011;47474;48.824;9.384;2023-03-01T06:20:53;22.27;;;13.50;;
13785;SDS011;47474;48.824;9.384;2023-03-01T06:23:20;20.83;;;12.03;;
13785;SDS011;47474;48.824;9.384;2023-03-01T06:25:47;21.87;;;13.87;;
13785;SDS011;47474;48.824;9.384;2023-03-01T06:28:13;20.80;;;13.57;;
13785;SDS011;47474;48.824;9.384;2023-03-01T06:30:40;20.77;;;13.70;;
13785;SDS011;47474;48.824;9.384;2023-03-01T06:33:06;20.13;;;13.90;;
13785;SDS011;47474;48.824;9.384;2023-03-01T06:35:33;19.00;;;12.03;;
13785;SDS011;47474;48.824;9.384;2023-03-01T06:38:02;20.83;;;13.83;;
13785;SDS011;47474;48.824;9.384;2023-03-01T06:40:29;19.00;;;12.13;;
13785;SDS011;47474;48.824;9.384;2023-03-01T06:42:57;19.53;;;13.40;;
13785;SDS011;47474;48.824;9.384;2023-03-01T06:45:24;17.50;;;12.53;;
13785;SDS011;47474;48.824;9.384;2023-03-01T06:47:50;15.83;;;11.73;;
13785;SDS011;47474;48.824;9.384;2023-03-01T06:50:17;17.57;;;12.70;;
13785;SDS011;47474;48.824;9.384;2023-03-01T06:52:44;17.40;;;12.60;;
13785;SDS011;47474;48.824;9.384;2023-03-01T06:55:12;17.00;;;12.70;;
13785;SDS011;47474;48.824;9.384;2023-03-01T06:57:39;19.47;;;13.20;;
13785;SDS011;47474;48.824;9.384;2023-03-01T07:00:06;16.30;;;11.73;;
13785;SDS011;47474;48.824;9.384;2023-03-01T07:02:33;19.43;;;12.83;;
13785;SDS011;47474;48.824;9.384;2023-03-01T07:05:00;21.93;;;13.87;;
13785;SDS011;47474;48.824;9.384;2023-03-01T07:07:26;20.90;;;13.20;;
13785;SDS011;47474;48.824;9.384;2023-03-01T07:09:52;20.60;;;13.23;;
13785;SDS011;47474;48.824;9.384;2023-03-01T07:12:20;21.83;;;12.80;;
13785;SDS011;47474;48.824;9.384;2023-03-01T07:14:47;16.27;;;12.53;;
13785;SDS011;47474;48.824;9.384;2023-03-01T07:17:13;23.37;;;13.03;;
13785;SDS011;47474;48.824;9.384;2023-03-01T07:19:40;19.60;;;12.67;;
13785;SDS011;47474;48.824;9.384;2023-03-01T07:22:06;18.60;;;13.13;;
13785;SDS011;47474;48.824;9.384;2023-03-01T07:24:34;21.40;;;13.33;;
13785;SDS011;47474;48.824;9.384;2023-03-01T07:27:00;17.27;;;12.97;;
13785;SDS011;47474;48.824;9.384;2023-03-01T07:29:28;19.10;;;13.33;;
13785;SDS011;47474;48.824;9.384;2023-03-01T07:31:55;19.73;;;13.77;;
13785;SDS011;47474;48.824;9.384;2023-03-01T07:34:21;21.27;;;13.70;;
13785;SDS011;47474;48.824;9.384;2023-03-01T07:36:48;17.03;;;12.17;;
13785;SDS011;47474;48.824;9.384;2023-03-01T07:39:14;21.23;;;13.17;;
13785;SDS011;47474;48.824;9.384;2023-03-01T07:41:41;21.93;;;13.80;;
13785;SDS011;47474;48.824;9.384;2023-03-01T07:44:07;21.17;;;14.83;;
13785;SDS011;47474;48.824;9.384;2023-03-01T07:46:35;18.77;;;12.63;;
13785;SDS011;47474;48.824;9.384;2023-03-01T07:49:02;18.37;;;13.07;;
13785;SDS011;47474;48.824;9.384;2023-03-01T07:51:29;20.83;;;13.60;;
13785;SDS011;47474;48.824;9.384;2023-03-01T07:53:56;19.07;;;13.73;;
13785;SDS011;47474;48.824;9.384;2023-03-01T07:56:22;18.30;;;12.23;;
13785;SDS011;47474;48.824;9.384;2023-03-01T07:58:49;21.07;;;13.47;;
13785;SDS011;47474;48.824;9.384;2023-03-01T08:01:16;20.00;;;13.33;;
13785;SDS011;47474;48.824;9.384;2023-03-01T08:03:45;17.83;;;13.30;;
13785;SDS011;47474;48.824;9.384;2023-03-01T08:06:12;21.50;;;14.10;;
13785;SDS011;47474;48.824;9.384;2023-03-01T08:08:40;18.83;;;13.23;;
13785;SDS011;47474;48.824;9.384;2023-03-01T08:11:07;22.70;;;13.07;;
13785;SDS011;47474;48.824;9.384;2023-03-01T08:13:36;19.57;;;13.70;;
13785;SDS011;47474;48.824;9.384;2023-03-01T08:16:03;18.77;;;13.97;;
13785;SDS011;47474;48.824;9.384;2023-03-01T08:18:30;22.17;;;13.73;;
13785;SDS011;47474;48.824;9.384;2023-03-01T08:21:02;19.50;;;13.90;;
13785;SDS011;47474;48.824;9.384;2023-03-01T08:23:29;20.33;;;13.77;;
13785;SDS011;47474;48.824;9.384;2023-03-01T08:26:02;21.67;;;13.90;;
13785;SDS011;47474;48.824;9.384;2023-03-01T08:28:29;16.97;;;12.70;;
13785;SDS011;47474;48.824;9.384;2023-03-01T08:30:56;20.13;;;14.50;;
13785;SDS011;47474;48.824;9.384;2023-03-01T08:33:22;23.23;;;14.43;;
13785;SDS011;47474;48.824;9.384;2023-03-01T08:35:49;19.83;;;13.90;;
13785;SDS011;47474;48.824;9.384;2023-03-01T08:38:17;19.03;;;13.97;;
13785;SDS011;47474;48.824;9.384;2023-03-01T08:40:43;19.40;;;13.60;;
13785;SDS011;47474;48.824;9.384;2023-03-01T08:43:10;21.63;;;13.93;;
13785;SDS011;47474;48.824;9.384;2023-03-01T08:45:36;20.43;;;13.70;;
13785;SDS011;47474;48.824;9.384;2023-03-01T08:48:03;21.33;;;13.70;;
13785;SDS011;47474;48.824;9.384;2023-03-01T08:50:29;20.37;;;13.03;;
13785;SDS011;47474;48.824;9.384;2023-03-01T08:52:56;20.00;;;13.20;;
13785;SDS011;47474;48.824;9.384;2023-03-01T08:55:24;17.50;;;12.83;;
13785;SDS011;47474;48.824;9.384;2023-03-01T08:57:50;20.03;;;13.70;;
13785;SDS011;47474;48.824;9.384;2023-03-01T09:00:17;18.37;;;13.40;;
13785;SDS011;47474;48.824;9.384;2023-03-01T09:02:44;21.30;;;13.97;;
13785;SDS011;47474;48.824;9.384;2023-03-01T09:05:10;20.50;;;13.53;;
13785;SDS011;47474;48.824;9.384;2023-03-01T09:07:37;21.33;;;13.43;;
13785;SDS011;47474;48.824;9.384;2023-03-01T09:10:03;20.10;;;13.67;;
13785;SDS011;47474;48.824;9.384;2023-03-01T09:12:32;20.70;;;13.20;;
13785;SDS011;47474;48.824;9.384;2023-03-01T09:14:59;20.33;;;13.17;;
13785;SDS011;47474;48.824;9.384;2023-03-01T09:17:25;17.97;;;13.23;;
13785;SDS011;47474;48.824;9.384;2023-03-01T09:19:52;21.13;;;14.10;;
13785;SDS011;47474;48.824;9.384;2023-03-01T09:22:18;22.83;;;13.90;;
13785;SDS011;47474;48.824;9.384;2023-03-01T09:24:44;18.57;;;13.07;;
13785;SDS011;47474;48.824;9.384;2023-03-01T09:27:11;17.43;;;12.97;;
13785;SDS011;47474;48.824;9.384;2023-03-01T09:29:40;24.70;;;14.00;;
13785;SDS011;47474;48.824;9.384;2023-03-01T09:32:07;19.83;;;13.90;;
13785;SDS011;47474;48.824;9.384;2023-03-01T09:34:34;20.13;;;13.97;;
13785;SDS011;47474;48.824;9.384;2023-03-01T09:37:21;18.53;;;13.27;;
13785;SDS011;47474;48.824;9.384;2023-03-01T09:39:47;20.83;;;13.90;;
13785;SDS011;47474;48.824;9.384;2023-03-01T09:42:14;21.63;;;13.57;;
13785;SDS011;47474;48.824;9.384;2023-03-01T09:44:43;22.67;;;14.83;;
13785;SDS011;47474;48.824;9.384;2023-03-01T09:47:16;17.43;;;12.77;;
13785;SDS011;47474;48.824;9.384;2023-03-01T09:49:44;19.30;;;13.07;;
13785;SDS011;47474;48.824;9.384;2023-03-01T09:52:17;21.37;;;14.77;;
13785;SDS011;47474;48.824;9.384;2023-03-01T09:54:47;18.93;;;12.93;;
13785;SDS011;47474;48.824;9.384;2023-03-01T09:57:17;20.33;;;13.20;;
13785;SDS011;47474;48.824;9.384;2023-03-01T09:59:49;25.23;;;13.60;;
13785;SDS011;47474;48.824;9.384;2023-03-01T10:02:27;15.33;;;11.93;;
13785;SDS011;47474;48.824;9.384;2023-03-01T10:04:57;19.27;;;12.90;;
13785;SDS011;47474;48.824;9.384;2023-03-01T10:07:32;17.53;;;12.77;;
13785;SDS011;47474;48.824;9.384;2023-03-01T10:10:05;18.93;;;12.77;;
13785;SDS011;47474;48.824;9.384;2023-03-01T10:12:33;17.23;;;12.83;;
13785;SDS011;47474;48.824;9.384;2023-03-01T10:15:04;19.57;;;12.70;;
13785;SDS011;47474;48.824;9.384;2023-03-01T10:17:33;16.10;;;11.77;;
13785;SDS011;47474;48.824;9.384;2023-03-01T10:20:17;17.43;;;12.20;;
13785;SDS011;47474;48.824;9.384;2023-03-01T10:22:45;18.90;;;13.53;;
13785;SDS011;47474;48.824;9.384;2023-03-01T10:25:15;17.33;;;12.80;;
13785;SDS011;47474;48.824;9.384;2023-03-01T10:27:45;16.00;;;12.10;;
13785;SDS011;47474;48.824;9.384;2023-03-01T10:30:19;18.50;;;13.17;;
13785;SDS011;47474;48.824;9.384;2023-03-01T10:32:48;20.77;;;13.33;;
13785;SDS011;47474;48.824;9.384;2023-03-01T10:35:17;17.37;;;13.13;;
13785;SDS011;47474;48.824;9.384;2023-03-01T10:37:57;18.57;;;13.43;;
13785;SDS011;47474;48.824;9.384;2023-03-01T10:40:25;17.17;;;12.50;;
13785;SDS011;47474;48.824;9.384;2023-03-01T10:42:51;19.47;;;13.20;;
13785;SDS011;47474;48.824;9.384;2023-03-01T10:45:27;16.40;;;12.47;;
13785;SDS011;47474;48.824;9.384;2023-03-01T10:48:03;17.13;;;11.83;;
13785;SDS011;47474;48.824;9.384;2023-03-01T10:50:38;18.47;;;12.23;;
13785;SDS011;47474;48.824;9.384;2023-03-01T10:53:16;21.40;;;12.47;;
13785;SDS011;47474;48.824;9.384;2023-03-01T10:55:56;14.20;;;12.20;;
13785;SDS011;47474;48.824;9.384;2023-03-01T10:58:25;17.23;;;13.23;;
13785;SDS011;47474;48.824;9.384;2023-03-01T11:00:53;15.87;;;11.90;;
13785;SDS011;47474;48.824;9.384;2023-03-01T11:03:21;15.83;;;11.70;;
13785;SDS011;47474;48.824;9.384;2023-03-01T11:05:50;15.63;;;11.67;;
13785;SDS011;47474;48.824;9.384;2023-03-01T11:08:29;16.43;;;12.97;;
13785;SDS011;47474;48.824;9.384;2023-03-01T11:11:03;16.47;;;12.10;;
13785;SDS011;47474;48.824;9.384;2023-03-01T11:13:31;17.30;;;11.77;;
13785;SDS011;47474;48.824;9.384;2023-03-01T11:15:59;16.83;;;12.97;;
13785;SDS011;47474;48.824;9.384;2023-03-01T11:18:27;15.50;;;12.20;;
13785;SDS011;47474;48.824;9.384;2023-03-01T11:20:56;15.83;;;12.30;;
13785;SDS011;47474;48.824;9.384;2023-03-01T11:23:24;15.97;;;12.40;;
13785;SDS011;47474;48.824;9.384;2023-03-01T11:25:54;17.33;;;10.90;;
13785;SDS011;47474;48.824;9.384;2023-03-01T11:28:22;16.07;;;12.47;;
13785;SDS011;47474;48.824;9.384;2023-03-01T11:30:50;17.13;;;12.40;;
13785;SDS011;47474;48.824;9.384;2023-03-01T11:33:24;18.30;;;12.53;;
13785;SDS011;47474;48.824;9.384;2023-03-01T11:36:00;16.20;;;10.97;;
13785;SDS011;47474;48.824;9.384;2023-03-01T11:38:28;16.40;;;10.87;;
13785;SDS011;47474;48.824;9.384;2023-03-01T11:40:57;13.23;;;11.23;;
13785;SDS011;47474;48.824;9.384;2023-03-01T11:43:29;14.17;;;10.97;;
13785;SDS011;47474;48.824;9.384;2023-03-01T11:49:00;14.70;;;11.23;;
13785;SDS011;47474;48.824;9.384;2023-03-01T11:51:38;15.10;;;11.13;;
13785;SDS011;47474;48.824;9.384;2023-03-01T11:54:13;14.60;;;11.13;;
13785;SDS011;47474;48.824;9.384;2023-03-01T11:56:48;14.83;;;11.10;;
13785;SDS011;47474;48.824;9.384;2023-03-01T11:59:24;14.13;;;10.77;;
13785;SDS011;47474;48.824;9.384;2023-03-01T12:02:16;12.80;;;10.63;;
13785;SDS011;47474;48.824;9.384;2023-03-01T12:04:59;14.50;;;11.50;;
13785;SDS011;47474;48.824;9.384;2023-03-01T12:07:35;15.97;;;10.40;;
13785;SDS011;47474;48.824;9.384;2023-03-01T12:12:56;16.43;;;11.80;;
13785;SDS011;47474;48.824;9.384;2023-03-01T12:15:32;13.73;;;10.70;;
13785;SDS011;47474;48.824;9.384;2023-03-01T12:18:16;16.73;;;12.30;;
13785;SDS011;47474;48.824;9.384;2023-03-01T12:20:55;14.10;;;11.47;;
13785;SDS011;47474;48.824;9.384;2023-03-01T12:23:32;16.37;;;10.43;;
13785;SDS011;47474;48.824;9.384;2023-03-01T12:26:08;14.00;;;10.70;;
13785;SDS011;47474;48.824;9.384;2023-03-01T12:28:49;14.73;;;11.40;;
13785;SDS011;47474;48.824;9.384;2023-03-01T12:34:33;14.33;;;10.83;;
13785;SDS011;47474;48.824;9.384;2023-03-01T12:37:13;12.63;;;10.13;;
13785;SDS011;47474;48.824;9.384;2023-03-01T12:39:51;15.13;;;10.57;;
13785;SDS011;47474;48.824;9.384;2023-03-01T12:42:27;14.03;;;10.77;;
13785;SDS011;47474;48.824;9.384;2023-03-01T12:45:01;14.03;;;10.10;;
13785;SDS011;47474;48.824;9.384;2023-03-01T12:47:39;14.30;;;11.00;;
13785;SDS011;47474;48.824;9.384;2023-03-01T12:50:16;13.17;;;10.40;;
13785;SDS011;47474;48.824;9.384;2023-03-01T12:52:47;12.90;;;9.97;;
13785;SDS011;47474;48.824;9.384;2023-03-01T12:55:19;13.10;;;9.83;;
13785;SDS011;47474;48.824;9.384;2023-03-01T12:57:53;13.90;;;10.30;;
13785;SDS011;47474;48.824;9.384;2023-03-01T13:00:27;13.73;;;10.47;;
13785;SDS011;47474;48.824;9.384;2023-03-01T13:02:58;13.77;;;10.03;;
13785;SDS011;47474;48.824;9.384;2023-03-01T13:05:31;13.83;;;10.20;;
13785;SDS011;47474;48.824;9.384;2023-03-01T13:08:06;12.97;;;10.30;;
13785;SDS011;47474;48.824;9.384;2023-03-01T13:10:39;13.07;;;9.90;;
13785;SDS011;47474;48.824;9.384;2023-03-01T13:13:15;13.27;;;9.43;;
13785;SDS011;47474;48.824;9.384;2023-03-01T13:15:45;14.13;;;10.37;;
13785;SDS011;47474;48.824;9.384;2023-03-01T13:18:27;11.93;;;9.37;;
13785;SDS011;47474;48.824;9.384;2023-03-01T13:20:55;11.23;;;9.07;;
13785;SDS011;47474;48.824;9.384;2023-03-01T13:23:26;12.90;;;9.67;;
13785;SDS011;47474;48.824;9.384;2023-03-01T13:26:02;13.40;;;10.00;;
13785;SDS011;47474;48.824;9.384;2023-03-01T13:34:46;13.03;;;10.17;;
13785;SDS011;47474;48.824;9.384;2023-03-01T13:37:20;13.23;;;10.20;;
13785;SDS011;47474;48.824;9.384;2023-03-01T13:39:57;16.27;;;11.20;;
13785;SDS011;47474;48.824;9.384;2023-03-01T13:42:31;15.50;;;11.87;;
13785;SDS011;47474;48.824;9.384;2023-03-01T13:44:59;18.23;;;12.47;;
13785;SDS011;47474;48.824;9.384;2023-03-01T13:47:26;14.53;;;11.40;;
13785;SDS011;47474;48.824;9.384;2023-03-01T13:49:55;14.93;;;11.10;;
13785;SDS011;47474;48.824;9.384;2023-03-01T13:52:30;16.30;;;11.33;;
13785;SDS011;47474;48.824;9.384;2023-03-01T13:55:04;15.47;;;11.43;;
13785;SDS011;47474;48.824;9.384;2023-03-01T13:57:33;15.67;;;11.83;;
13785;SDS011;47474;48.824;9.384;2023-03-01T14:00:01;14.30;;;11.50;;
13785;SDS011;47474;48.824;9.384;2023-03-01T14:02:28;14.87;;;11.53;;
13785;SDS011;47474;48.824;9.384;2023-03-01T14:04:57;14.73;;;10.73;;
13785;SDS011;47474;48.824;9.384;2023-03-01T14:07:25;16.50;;;11.67;;
13785;SDS011;47474;48.824;9.384;2023-03-01T14:09:54;18.70;;;11.77;;
13785;SDS011;47474;48.824;9.384;2023-03-01T14:12:27;16.73;;;11.83;;
13785;SDS011;47474;48.824;9.384;2023-03-01T14:15:02;14.03;;;11.23;;
13785;SDS011;47474;48.824;9.384;2023-03-01T14:17:32;14.00;;;11.17;;
13785;SDS011;47474;48.824;9.384;2023-03-01T14:20:08;17.10;;;12.17;;
13785;SDS011;47474;48.824;9.384;2023-03-01T14:22:37;16.03;;;11.40;;
13785;SDS011;47474;48.824;9.384;2023-03-01T14:25:16;17.67;;;11.23;;
13785;SDS011;47474;48.824;9.384;2023-03-01T14:27:50;19.67;;;12.33;;
13785;SDS011;47474;48.824;9.384;2023-03-01T14:30:19;15.00;;;11.57;;
13785;SDS011;47474;48.824;9.384;2023-03-01T14:32:51;15.97;;;11.77;;
13785;SDS011;47474;48.824;9.384;2023-03-01T14:35:19;16.23;;;12.13;;
13785;SDS011;47474;48.824;9.384;2023-03-01T14:37:47;14.70;;;11.60;;
13785;SDS011;47474;48.824;9.384;2023-03-01T14:40:19;17.77;;;12.80;;
13785;SDS011;47474;48.824;9.384;2023-03-01T14:42:52;15.30;;;11.70;;
13785;SDS011;47474;48.824;9.384;2023-03-01T14:45:19;14.40;;;11.30;;
13785;SDS011;47474;48.824;9.384;2023-03-01T14:47:46;15.23;;;11.77;;